createdAt,value
2023-04-23T00:00:02.442Z,11.0
2023-04-23T00:15:02.746Z,10.7
2023-04-23T00:30:03.171Z,10.6
2023-04-23T00:45:02.624Z,10.1
2023-04-23T01:00:03.044Z,9.9
2023-04-23T01:15:02.488Z,9.8
2023-04-23T01:30:02.916Z,9.6
2023-04-23T01:45:02.462Z,9.5
2023-04-23T02:00:02.766Z,9.5
2023-04-23T02:15:03.401Z,9.3
2023-04-23T02:30:02.677Z,9.4
2023-04-23T02:45:03.108Z,9.4
2023-04-23T03:00:02.522Z,9.3
2023-04-23T03:15:02.982Z,9.2
2023-04-23T03:30:02.493Z,9.1
2023-04-23T03:45:02.871Z,9.0
2023-04-23T04:00:02.481Z,8.6
2023-04-23T04:15:02.732Z,8.4
2023-04-23T04:30:02.214Z,8.0
2023-04-23T04:45:02.626Z,7.7
2023-04-23T05:00:03.041Z,7.4
2023-04-23T05:15:02.542Z,7.5
2023-04-23T05:30:02.932Z,8.2
2023-04-23T05:45:02.537Z,8.8
2023-04-23T06:00:02.832Z,9.5
2023-04-23T06:15:02.492Z,10.2
2023-04-23T06:30:02.717Z,10.6
2023-04-23T06:45:05.326Z,11.2
2023-04-23T07:00:02.612Z,12.4
2023-04-23T07:15:03.079Z,13.9
2023-04-23T07:30:02.537Z,15.6
2023-04-23T07:45:02.924Z,16.9
2023-04-23T08:00:02.535Z,17.9
2023-04-23T08:15:02.801Z,18.0
2023-04-23T08:30:02.249Z,18.0
2023-04-23T08:45:02.672Z,17.0
2023-04-23T09:00:03.125Z,16.6
2023-04-23T09:15:02.568Z,17.7
2023-04-23T09:30:03.035Z,19.0
2023-04-23T09:45:02.545Z,19.0
2023-04-23T10:00:13.285Z,19.9
2023-04-23T10:15:02.584Z,20.7
2023-04-23T10:45:09.993Z,18.7
2023-04-23T11:00:02.666Z,18.2
2023-04-23T11:15:03.144Z,18.1
2023-04-23T11:30:02.579Z,18.3
2023-04-23T11:45:02.981Z,18.9
2023-04-23T12:00:02.567Z,19.7
2023-04-23T12:15:02.880Z,19.6
2023-04-23T12:30:04.077Z,19.2
2023-04-23T12:45:02.742Z,19.1
2023-04-23T13:00:03.215Z,19.5
2023-04-23T13:15:02.626Z,20.1
2023-04-23T13:30:03.077Z,19.6
2023-04-23T13:45:02.619Z,19.4
2023-04-23T14:00:02.961Z,19.7
2023-04-23T14:15:02.590Z,20.4
2023-04-23T14:30:02.844Z,19.8
2023-04-23T14:45:02.289Z,18.4
2023-04-23T15:00:02.718Z,17.4
2023-04-23T15:15:03.100Z,17.0
2023-04-23T15:30:02.596Z,17.3
2023-04-23T15:45:03.027Z,17.5
2023-04-23T16:00:02.633Z,17.6
2023-04-23T16:15:02.897Z,17.4
2023-04-23T16:30:02.361Z,17.0
2023-04-23T16:45:02.797Z,16.5
2023-04-23T17:00:03.233Z,16.2
2023-04-23T17:15:02.684Z,15.8
2023-04-23T17:30:03.133Z,15.3
2023-04-23T17:45:02.631Z,14.2
2023-04-23T18:00:02.976Z,13.4
2023-04-23T18:15:02.634Z,12.9
2023-04-23T18:30:02.857Z,12.4
2023-04-23T18:45:02.265Z,11.9
2023-04-23T19:00:02.744Z,12.0
2023-04-23T19:15:03.163Z,12.0
2023-04-23T19:30:02.627Z,11.9
2023-04-23T19:45:03.080Z,11.7
2023-04-23T20:00:02.646Z,11.5
2023-04-23T20:15:02.908Z,11.3
2023-04-23T20:30:02.390Z,10.7
2023-04-23T20:45:02.827Z,11.0
2023-04-23T21:00:02.240Z,11.0
2023-04-23T21:15:02.697Z,10.8
2023-04-23T21:30:03.115Z,11.0
2023-04-23T21:45:02.697Z,11.0
2023-04-23T22:00:03.009Z,11.1
2023-04-23T22:15:02.671Z,11.2
2023-04-23T22:30:02.900Z,11.0
2023-04-23T22:45:02.327Z,10.8
2023-04-23T23:00:02.763Z,11.0
2023-04-23T23:15:03.190Z,10.8
2023-04-23T23:30:02.686Z,10.5
2023-04-23T23:45:03.080Z,10.6
